createdAt,value
2023-03-28T00:00:51.317Z,0.80
2023-03-28T00:01:51.309Z,0.90
2023-03-28T00:02:51.377Z,0.90
2023-03-28T00:03:51.350Z,1.00
2023-03-28T00:04:51.275Z,0.90
2023-03-28T00:05:51.321Z,1.00
2023-03-28T00:06:51.252Z,0.90
2023-03-28T00:07:51.252Z,0.90
2023-03-28T00:08:51.264Z,1.10
2023-03-28T00:09:51.236Z,0.90
2023-03-28T00:10:51.229Z,0.80
2023-03-28T00:11:51.205Z,0.90
2023-03-28T00:12:51.196Z,1.00
2023-03-28T00:13:51.193Z,0.90
2023-03-28T00:14:51.178Z,1.00
2023-03-28T00:15:51.206Z,0.90
2023-03-28T00:16:51.156Z,1.00
2023-03-28T00:17:51.216Z,0.90
2023-03-28T00:18:51.248Z,0.80
2023-03-28T00:19:51.119Z,1.20
2023-03-28T00:20:51.113Z,1.00
2023-03-28T00:21:51.123Z,1.10
2023-03-28T00:22:51.086Z,0.90
2023-03-28T00:23:51.076Z,0.90
2023-03-28T00:24:51.063Z,0.90
2023-03-28T00:25:51.086Z,1.00
2023-03-28T00:26:51.040Z,0.90
2023-03-28T00:27:51.047Z,0.90
2023-03-28T00:28:51.021Z,0.90
2023-03-28T00:29:51.022Z,1.00
2023-03-28T00:30:51.072Z,0.90
2023-03-28T00:31:51.118Z,0.90
2023-03-28T00:32:51.072Z,1.00
2023-03-28T00:33:51.005Z,1.10
2023-03-28T00:34:50.959Z,1.00
2023-03-28T00:35:50.998Z,0.80
2023-03-28T00:36:50.967Z,1.00
2023-03-28T00:37:50.941Z,0.90
2023-03-28T00:38:57.390Z,1.00
2023-03-28T00:39:50.914Z,1.10
2023-03-28T00:40:50.901Z,0.90
2023-03-28T00:41:50.878Z,0.90
2023-03-28T00:42:50.877Z,1.00
2023-03-28T00:43:50.881Z,0.90
2023-03-28T00:44:50.898Z,0.90
2023-03-28T00:45:59.181Z,1.00
2023-03-28T00:46:50.936Z,1.00
2023-03-28T00:47:50.882Z,0.90
2023-03-28T00:48:50.806Z,0.90
2023-03-28T00:49:50.808Z,0.90
2023-03-28T00:50:50.790Z,0.80
2023-03-28T00:51:50.786Z,0.90
2023-03-28T00:52:50.781Z,1.10
2023-03-28T00:53:50.762Z,1.00
2023-03-28T00:54:50.736Z,1.20
2023-03-28T00:55:50.733Z,1.00
2023-03-28T00:56:50.820Z,0.90
2023-03-28T00:57:50.727Z,1.00
2023-03-28T00:58:50.717Z,1.30
2023-03-28T00:59:50.704Z,1.00
2023-03-28T01:00:50.696Z,0.90
2023-03-28T01:01:50.786Z,0.90
2023-03-28T01:02:50.838Z,1.00
2023-03-28T01:03:50.705Z,0.80
2023-03-28T01:04:50.629Z,0.90
2023-03-28T01:05:50.622Z,0.90
2023-03-28T01:06:50.604Z,1.00
2023-03-28T01:07:50.608Z,0.90
2023-03-28T01:08:50.583Z,0.90
2023-03-28T01:09:50.584Z,1.00
2023-03-28T01:10:50.576Z,0.90
2023-03-28T01:11:50.584Z,1.00
2023-03-28T01:12:50.539Z,0.90
2023-03-28T01:13:50.549Z,0.90
2023-03-28T01:14:50.532Z,0.90
2023-03-28T01:15:50.578Z,1.00
2023-03-28T01:16:50.501Z,0.90
2023-03-28T01:17:50.524Z,1.00
2023-03-28T01:18:50.484Z,1.00
2023-03-28T01:19:50.490Z,1.00
2023-03-28T01:20:50.456Z,0.90
2023-03-28T01:21:50.448Z,0.90
2023-03-28T01:22:57.411Z,1.00
2023-03-28T01:23:50.448Z,0.90
2023-03-28T01:24:50.410Z,1.00
2023-03-28T01:25:50.411Z,0.90
2023-03-28T01:26:50.395Z,0.90
2023-03-28T01:27:50.383Z,0.90
2023-03-28T01:28:50.370Z,0.90
2023-03-28T01:29:50.358Z,1.00
2023-03-28T01:30:50.344Z,0.90
2023-03-28T01:31:50.389Z,1.00
2023-03-28T01:32:50.359Z,0.90
2023-03-28T01:33:50.332Z,0.90
2023-03-28T01:34:50.301Z,0.90
2023-03-28T01:35:50.337Z,0.90
2023-03-28T01:36:50.294Z,1.00
2023-03-28T01:37:50.278Z,0.90
2023-03-28T01:38:50.266Z,0.90
2023-03-28T01:39:50.251Z,0.90
2023-03-28T01:40:50.284Z,0.90
2023-03-28T01:41:50.231Z,1.00
2023-03-28T01:42:50.213Z,1.00
2023-03-28T01:43:50.214Z,1.00
2023-03-28T01:44:50.198Z,1.00
2023-03-28T01:45:50.244Z,0.90
2023-03-28T01:46:50.188Z,0.90
2023-03-28T01:47:50.186Z,0.90
2023-03-28T01:48:50.150Z,0.90
2023-03-28T01:49:50.198Z,1.00
2023-03-28T01:50:50.130Z,0.90
2023-03-28T01:51:50.141Z,0.90
2023-03-28T01:52:50.116Z,0.90
2023-03-28T01:53:50.116Z,0.90
2023-03-28T01:54:50.093Z,1.00
2023-03-28T01:55:50.082Z,0.90
2023-03-28T01:56:50.141Z,0.90
2023-03-28T01:57:50.094Z,0.90
2023-03-28T01:58:50.051Z,0.90
2023-03-28T01:59:50.043Z,0.80
2023-03-28T02:00:50.077Z,1.10
2023-03-28T02:01:50.074Z,0.90
2023-03-28T02:02:50.086Z,0.90
2023-03-28T02:03:49.997Z,1.10
2023-03-28T02:04:49.977Z,0.90
2023-03-28T02:05:49.984Z,1.00
2023-03-28T02:06:49.953Z,0.80
2023-03-28T02:07:49.965Z,0.90
2023-03-28T02:08:49.956Z,0.80
2023-03-28T02:09:49.928Z,1.00
2023-03-28T02:10:49.926Z,1.20
2023-03-28T02:11:49.914Z,1.00
2023-03-28T02:12:49.894Z,1.20
2023-03-28T02:13:49.905Z,1.00
2023-03-28T02:14:49.877Z,0.80
2023-03-28T02:15:49.875Z,1.10
2023-03-28T02:16:50.129Z,0.90
2023-03-28T02:17:49.932Z,0.90
2023-03-28T02:18:49.838Z,1.00
2023-03-28T02:19:49.828Z,0.90
2023-03-28T02:20:49.830Z,0.90
2023-03-28T02:21:49.816Z,0.90
2023-03-28T02:22:49.795Z,0.90
2023-03-28T02:23:49.791Z,1.00
2023-03-28T02:24:49.774Z,0.90
2023-03-28T02:25:49.773Z,1.10
2023-03-28T02:26:49.770Z,1.00
2023-03-28T02:27:49.742Z,0.90
2023-03-28T02:28:49.732Z,0.80
2023-03-28T02:29:49.744Z,0.90
2023-03-28T02:30:49.706Z,0.80
2023-03-28T02:31:49.765Z,0.90
2023-03-28T02:32:49.755Z,0.90
2023-03-28T02:33:49.690Z,1.20
2023-03-28T02:34:49.666Z,1.00
2023-03-28T02:35:49.763Z,0.90
2023-03-28T02:36:49.658Z,0.90
2023-03-28T02:37:49.645Z,0.80
2023-03-28T02:38:49.623Z,0.90
2023-03-28T02:39:49.621Z,1.00
2023-03-28T02:40:49.604Z,1.10
2023-03-28T02:41:49.606Z,0.90
2023-03-28T02:42:49.613Z,0.90
2023-03-28T02:43:49.591Z,1.00
2023-03-28T02:44:49.563Z,0.90
2023-03-28T02:45:49.588Z,0.90
2023-03-28T02:46:49.537Z,1.00
2023-03-28T02:47:49.564Z,0.80
2023-03-28T02:48:49.521Z,0.90
2023-03-28T02:49:50.745Z,0.80
2023-03-28T02:50:49.507Z,1.00
2023-03-28T02:51:49.504Z,0.80
2023-03-28T02:52:49.475Z,1.10
2023-03-28T02:53:49.476Z,1.00
2023-03-28T02:54:49.522Z,1.00
2023-03-28T02:55:49.469Z,1.00
2023-03-28T02:56:49.446Z,0.90
2023-03-28T02:57:49.424Z,1.20
2023-03-28T02:58:49.412Z,0.90
2023-03-28T02:59:49.413Z,1.00
2023-03-28T03:00:49.400Z,0.80
2023-03-28T03:01:49.411Z,0.90
2023-03-28T03:02:49.492Z,0.90
2023-03-28T03:03:49.395Z,0.90
2023-03-28T03:04:49.345Z,0.80
2023-03-28T03:05:49.342Z,0.80
2023-03-28T03:06:49.324Z,0.90
2023-03-28T03:07:49.322Z,0.90
2023-03-28T03:08:49.337Z,0.80
2023-03-28T03:09:49.296Z,0.90
2023-03-28T03:10:49.294Z,0.80
2023-03-28T03:11:49.276Z,1.10
2023-03-28T03:12:49.260Z,1.00
2023-03-28T03:13:49.266Z,0.80
2023-03-28T03:14:49.236Z,0.80
2023-03-28T03:15:49.266Z,0.90
2023-03-28T03:16:49.217Z,1.00
2023-03-28T03:17:49.273Z,0.90
2023-03-28T03:18:49.191Z,0.90
2023-03-28T03:19:49.188Z,1.00
2023-03-28T03:20:49.170Z,1.20
2023-03-28T03:21:49.164Z,1.00
2023-03-28T03:22:49.158Z,1.00
2023-03-28T03:23:49.139Z,1.00
2023-03-28T03:24:49.131Z,0.90
2023-03-28T03:25:49.129Z,0.90
2023-03-28T03:26:49.116Z,0.90
2023-03-28T03:27:49.107Z,0.80
2023-03-28T03:28:49.084Z,0.90
2023-03-28T03:29:49.080Z,1.00
2023-03-28T03:30:49.062Z,0.90
2023-03-28T03:31:49.154Z,0.80
2023-03-28T03:32:49.055Z,0.90
2023-03-28T03:33:49.030Z,0.90
2023-03-28T03:34:49.021Z,0.80
2023-03-28T03:35:49.036Z,0.90
2023-03-28T03:36:48.994Z,1.00
2023-03-28T03:37:49.041Z,1.00
2023-03-28T03:38:48.977Z,0.90
2023-03-28T03:39:48.965Z,1.10
2023-03-28T03:40:48.960Z,0.90
2023-03-28T03:41:48.963Z,1.10
2023-03-28T03:42:48.938Z,0.80
2023-03-28T03:43:49.811Z,1.00
2023-03-28T03:44:48.911Z,0.90
2023-03-28T03:45:48.918Z,1.00
2023-03-28T03:46:49.069Z,0.90
2023-03-28T03:47:48.909Z,0.80
2023-03-28T03:48:48.873Z,1.10
2023-03-28T03:49:48.855Z,1.00
2023-03-28T03:50:48.860Z,0.90
2023-03-28T03:51:48.835Z,1.10
2023-03-28T03:52:48.845Z,0.90
2023-03-28T03:53:48.810Z,0.80
2023-03-28T03:54:48.802Z,1.10
2023-03-28T03:55:48.800Z,0.90
2023-03-28T03:56:48.864Z,0.80
2023-03-28T03:57:48.773Z,0.80
2023-03-28T03:58:48.755Z,1.00
2023-03-28T03:59:48.738Z,0.90
2023-03-28T04:00:48.750Z,0.90
2023-03-28T04:01:48.795Z,0.90
2023-03-28T04:02:48.743Z,0.80
2023-03-28T04:03:48.727Z,1.30
2023-03-28T04:04:48.709Z,0.90
2023-03-28T04:05:48.681Z,0.90
2023-03-28T04:06:48.675Z,0.80
2023-03-28T04:07:48.668Z,0.80
2023-03-28T04:08:48.648Z,0.80
2023-03-28T04:09:48.645Z,0.90
2023-03-28T04:10:48.633Z,0.90
2023-03-28T04:11:48.620Z,1.00
2023-03-28T04:12:48.603Z,1.00
2023-03-28T04:13:48.586Z,0.90
2023-03-28T04:14:48.588Z,0.80
2023-03-28T04:15:48.615Z,0.90
2023-03-28T04:16:48.571Z,0.90
2023-03-28T04:17:48.582Z,1.00
2023-03-28T04:18:48.540Z,0.90
2023-03-28T04:19:48.521Z,0.90
2023-03-28T04:20:48.514Z,1.00
2023-03-28T04:21:48.536Z,0.90
2023-03-28T04:22:48.513Z,1.10
2023-03-28T04:23:48.496Z,0.90
2023-03-28T04:24:48.524Z,0.90
2023-03-28T04:25:48.454Z,1.10
2023-03-28T04:26:48.450Z,1.00
2023-03-28T04:27:48.445Z,0.90
2023-03-28T04:28:48.432Z,0.90
2023-03-28T04:29:48.417Z,0.90
2023-03-28T04:30:48.416Z,0.90
2023-03-28T04:31:48.418Z,0.80
2023-03-28T04:32:48.468Z,1.00
2023-03-28T04:33:48.375Z,0.90
2023-03-28T04:34:48.373Z,0.90
2023-03-28T04:35:48.423Z,0.90
2023-03-28T04:36:48.356Z,0.90
2023-03-28T04:37:48.340Z,0.80
2023-03-28T04:38:48.328Z,0.90
2023-03-28T04:39:48.332Z,0.90
2023-03-28T04:40:48.316Z,0.90
2023-03-28T04:41:48.385Z,0.90
2023-03-28T04:42:48.333Z,0.90
2023-03-28T04:43:48.277Z,1.00
2023-03-28T04:44:48.284Z,0.90
2023-03-28T04:45:48.296Z,0.80
2023-03-28T04:46:48.252Z,0.70
2023-03-28T04:47:48.336Z,0.80
2023-03-28T04:48:48.836Z,0.90
2023-03-28T04:49:48.213Z,0.80
2023-03-28T04:50:48.205Z,0.90
2023-03-28T04:51:48.186Z,0.80
2023-03-28T04:52:48.176Z,1.00
2023-03-28T04:53:48.163Z,1.00
2023-03-28T04:54:48.171Z,0.90
2023-03-28T04:55:48.159Z,0.80
2023-03-28T04:56:48.180Z,0.90
2023-03-28T04:57:48.123Z,0.90
2023-03-28T04:58:48.116Z,1.00
2023-03-28T04:59:48.111Z,1.00
2023-03-28T05:00:48.086Z,1.00
2023-03-28T05:01:48.136Z,0.90
2023-03-28T05:02:48.130Z,1.00
2023-03-28T05:03:48.095Z,1.00
2023-03-28T05:04:48.047Z,0.80
2023-03-28T05:05:48.952Z,1.00
2023-03-28T05:06:48.032Z,0.90
2023-03-28T05:07:48.005Z,0.90
2023-03-28T05:08:48.017Z,1.00
2023-03-28T05:09:47.997Z,0.90
2023-03-28T05:10:47.987Z,1.00
2023-03-28T05:11:47.963Z,0.90
2023-03-28T05:12:47.958Z,0.80
2023-03-28T05:13:47.941Z,0.90
2023-03-28T05:14:47.952Z,0.90
2023-03-28T05:15:47.927Z,0.90
2023-03-28T05:16:47.951Z,0.90
2023-03-28T05:17:47.948Z,0.90
2023-03-28T05:18:47.922Z,0.90
2023-03-28T05:19:47.884Z,0.90
2023-03-28T05:20:47.874Z,0.90
2023-03-28T05:21:47.854Z,0.90
2023-03-28T05:22:47.848Z,0.90
2023-03-28T05:23:51.555Z,1.00
2023-03-28T05:24:47.834Z,0.90
2023-03-28T05:25:47.809Z,0.90
2023-03-28T05:26:47.803Z,0.90
2023-03-28T05:27:47.805Z,0.80
2023-03-28T05:28:47.784Z,0.80
2023-03-28T05:29:47.768Z,1.00
2023-03-28T05:30:47.765Z,0.80
2023-03-28T05:31:47.768Z,1.00
2023-03-28T05:32:47.842Z,0.90
2023-03-28T05:33:47.741Z,0.90
2023-03-28T05:34:47.721Z,0.90
2023-03-28T05:35:47.809Z,1.10
2023-03-28T05:36:47.697Z,0.90
2023-03-28T05:37:47.703Z,0.90
2023-03-28T05:38:47.690Z,1.10
2023-03-28T05:39:47.666Z,0.90
2023-03-28T05:40:47.659Z,1.00
2023-03-28T05:41:47.648Z,0.90
2023-03-28T05:42:47.647Z,1.10
2023-03-28T05:43:47.627Z,1.00
2023-03-28T05:44:47.613Z,0.90
2023-03-28T05:45:47.624Z,1.00
2023-03-28T05:46:47.598Z,0.90
2023-03-28T05:47:47.646Z,0.90
2023-03-28T05:48:49.507Z,0.80
2023-03-28T05:49:47.557Z,1.00
2023-03-28T05:50:47.550Z,0.90
2023-03-28T05:51:47.561Z,0.80
2023-03-28T05:52:47.542Z,0.80
2023-03-28T05:53:47.578Z,0.90
2023-03-28T05:54:50.092Z,0.90
2023-03-28T05:55:47.492Z,0.90
2023-03-28T05:56:47.505Z,0.90
2023-03-28T05:57:47.486Z,0.90
2023-03-28T05:58:47.470Z,0.90
2023-03-28T05:59:47.452Z,0.80
2023-03-28T06:00:47.444Z,0.90
2023-03-28T06:01:47.439Z,1.10
2023-03-28T06:02:47.471Z,1.00
2023-03-28T06:03:47.448Z,0.90
2023-03-28T06:04:47.460Z,0.80
2023-03-28T06:05:47.396Z,0.80
2023-03-28T06:06:47.386Z,1.00
2023-03-28T06:07:47.370Z,0.80
2023-03-28T06:08:47.357Z,0.90
2023-03-28T06:09:47.345Z,0.90
2023-03-28T06:10:47.333Z,0.90
2023-03-28T06:11:47.328Z,1.00
2023-03-28T06:12:47.325Z,0.90
2023-03-28T06:13:47.304Z,0.90
2023-03-28T06:14:47.289Z,0.80
2023-03-28T06:15:47.270Z,0.90
2023-03-28T06:16:47.272Z,1.00
2023-03-28T06:17:47.352Z,0.80
2023-03-28T06:18:47.249Z,0.90
2023-03-28T06:19:47.269Z,0.90
2023-03-28T06:20:47.226Z,1.10
2023-03-28T06:21:47.230Z,1.00
2023-03-28T06:22:47.215Z,0.80
2023-03-28T06:23:47.189Z,1.00
2023-03-28T06:24:47.189Z,1.00
2023-03-28T06:25:47.194Z,0.90
2023-03-28T06:26:47.188Z,0.80
2023-03-28T06:27:47.152Z,1.00
2023-03-28T06:28:47.142Z,0.90
2023-03-28T06:29:47.127Z,0.90
2023-03-28T06:30:47.134Z,0.90
2023-03-28T06:31:47.174Z,0.80
2023-03-28T06:32:47.150Z,0.90
2023-03-28T06:33:47.084Z,0.80
2023-03-28T06:34:47.081Z,0.90
2023-03-28T06:35:47.076Z,0.90
2023-03-28T06:36:47.057Z,0.90
2023-03-28T06:37:47.055Z,0.80
2023-03-28T06:38:47.116Z,0.80
2023-03-28T06:39:47.030Z,1.00
2023-03-28T06:40:46.976Z,1.10
2023-03-28T06:41:47.010Z,1.00
2023-03-28T06:42:47.005Z,0.90
2023-03-28T06:43:46.994Z,1.00
2023-03-28T06:44:46.989Z,1.20
2023-03-28T06:45:46.962Z,0.90
2023-03-28T06:46:47.089Z,0.80
2023-03-28T06:47:46.966Z,0.90
2023-03-28T06:48:46.941Z,1.10
2023-03-28T06:49:46.877Z,0.90
2023-03-28T06:50:46.872Z,0.90
2023-03-28T06:51:46.855Z,1.00
2023-03-28T06:52:46.888Z,0.90
2023-03-28T06:53:46.882Z,0.80
2023-03-28T06:54:48.437Z,0.90
2023-03-28T06:55:46.853Z,1.00
2023-03-28T06:56:46.862Z,0.90
2023-03-28T06:57:46.795Z,0.80
2023-03-28T06:58:46.782Z,0.80
2023-03-28T06:59:46.808Z,0.90
2023-03-28T07:00:46.762Z,0.80
2023-03-28T07:01:46.771Z,0.70
2023-03-28T07:02:46.877Z,0.90
2023-03-28T07:03:48.218Z,0.90
2023-03-28T07:04:46.732Z,1.00
2023-03-28T07:05:46.699Z,1.00
2023-03-28T07:06:46.684Z,0.90
2023-03-28T07:07:46.726Z,1.00
2023-03-28T07:08:46.716Z,0.90
2023-03-28T07:09:46.671Z,0.90
2023-03-28T07:10:46.643Z,0.90
2023-03-28T07:11:46.635Z,1.00
2023-03-28T07:12:46.621Z,0.90
2023-03-28T07:13:46.622Z,1.00
2023-03-28T07:14:46.600Z,0.90
2023-03-28T07:15:46.584Z,1.10
2023-03-28T07:16:46.608Z,1.00
2023-03-28T07:17:46.580Z,0.90
2023-03-28T07:18:46.557Z,1.10
2023-03-28T07:19:46.568Z,1.00
2023-03-28T07:20:54.717Z,1.10
2023-03-28T07:21:46.527Z,1.10
2023-03-28T07:22:46.518Z,1.10
2023-03-28T07:23:46.502Z,1.20
2023-03-28T07:24:46.491Z,1.10
2023-03-28T07:25:46.476Z,1.10
2023-03-28T07:26:46.465Z,1.10
2023-03-28T07:27:46.461Z,1.20
2023-03-28T07:28:46.454Z,1.30
2023-03-28T07:29:46.443Z,1.20
2023-03-28T07:30:46.430Z,1.50
2023-03-28T07:31:46.463Z,1.30
2023-03-28T07:33:45.440Z,1.30
2023-03-28T07:34:46.390Z,1.50
2023-03-28T07:35:46.399Z,1.50
2023-03-28T07:36:46.374Z,1.50
2023-03-28T07:37:46.345Z,1.60
2023-03-28T07:38:48.392Z,1.50
2023-03-28T07:39:46.326Z,1.70
2023-03-28T07:40:46.324Z,1.60
2023-03-28T07:41:46.350Z,1.70
2023-03-28T07:42:46.292Z,1.80
2023-03-28T07:43:46.305Z,1.90
2023-03-28T07:44:46.312Z,1.50
2023-03-28T07:45:46.646Z,1.60
2023-03-28T07:46:46.260Z,1.80
2023-03-28T07:47:46.245Z,1.80
2023-03-28T07:48:46.231Z,1.60
2023-03-28T07:49:46.209Z,2.00
2023-03-28T07:50:46.211Z,1.50
2023-03-28T07:51:47.147Z,1.70
2023-03-28T07:52:46.183Z,1.90
2023-03-28T07:53:46.193Z,1.60
2023-03-28T07:54:46.162Z,1.80
2023-03-28T07:55:54.626Z,1.70
2023-03-28T07:56:46.171Z,1.60
2023-03-28T07:57:46.128Z,1.90
2023-03-28T07:58:46.162Z,1.40
2023-03-28T07:59:46.119Z,1.80
2023-03-28T08:00:46.094Z,1.80
2023-03-28T08:01:46.100Z,1.70
2023-03-28T08:02:46.151Z,1.70
2023-03-28T08:03:46.173Z,1.60
2023-03-28T08:04:46.051Z,1.70
2023-03-28T08:05:46.137Z,1.50
2023-03-28T08:06:46.047Z,1.60
2023-03-28T08:07:46.123Z,1.80
2023-03-28T08:08:46.004Z,1.60
2023-03-28T08:09:45.997Z,1.60
2023-03-28T08:10:45.989Z,1.60
2023-03-28T08:11:45.982Z,1.60
2023-03-28T08:12:45.956Z,1.60
2023-03-28T08:13:45.948Z,1.70
2023-03-28T08:14:45.933Z,1.60
2023-03-28T08:15:45.966Z,1.60
2023-03-28T08:16:45.926Z,1.60
2023-03-28T08:17:45.955Z,2.00
2023-03-28T08:18:46.641Z,1.70
2023-03-28T08:19:45.886Z,1.70
2023-03-28T08:20:45.909Z,1.60
2023-03-28T08:21:45.863Z,1.80
2023-03-28T08:22:45.871Z,2.20
2023-03-28T08:23:45.836Z,1.80
2023-03-28T08:24:45.824Z,1.80
2023-03-28T08:25:45.821Z,1.70
2023-03-28T08:26:48.128Z,1.60
2023-03-28T08:27:45.806Z,1.60
2023-03-28T08:28:45.779Z,1.60
2023-03-28T08:29:45.784Z,2.10
2023-03-28T08:30:45.762Z,1.60
2023-03-28T08:31:45.884Z,1.50
2023-03-28T08:32:48.246Z,1.80
2023-03-28T08:33:45.727Z,1.40
2023-03-28T08:34:45.718Z,1.70
2023-03-28T08:35:45.755Z,1.50
2023-03-28T08:36:45.724Z,1.60
2023-03-28T08:37:45.681Z,1.70
2023-03-28T08:38:45.666Z,1.40
2023-03-28T08:39:45.693Z,1.50
2023-03-28T08:40:45.657Z,1.70
2023-03-28T08:41:45.637Z,1.50
2023-03-28T08:42:45.620Z,1.60
2023-03-28T08:43:45.633Z,1.70
2023-03-28T08:44:47.245Z,1.70
2023-03-28T08:45:45.614Z,1.70
2023-03-28T08:46:45.608Z,1.80
2023-03-28T08:47:45.599Z,1.50
2023-03-28T08:48:45.557Z,1.50
2023-03-28T08:49:52.645Z,1.50
2023-03-28T08:50:45.534Z,1.40
2023-03-28T08:51:45.600Z,1.50
2023-03-28T08:52:45.525Z,1.70
2023-03-28T08:53:45.516Z,1.70
2023-03-28T08:54:45.516Z,1.50
2023-03-28T08:55:45.491Z,1.80
2023-03-28T08:56:45.497Z,1.70
2023-03-28T08:57:45.473Z,1.60
2023-03-28T08:58:45.444Z,1.80
2023-03-28T08:59:45.469Z,1.60
2023-03-28T09:00:45.441Z,1.60
2023-03-28T09:01:45.500Z,1.60
2023-03-28T09:02:45.500Z,1.90
2023-03-28T09:03:45.450Z,1.60
2023-03-28T09:04:45.399Z,1.80
2023-03-28T09:05:45.386Z,1.40
2023-03-28T09:06:45.361Z,1.60
2023-03-28T09:07:45.375Z,1.60
2023-03-28T09:08:45.339Z,1.60
2023-03-28T09:09:45.339Z,1.60
2023-03-28T09:10:45.360Z,1.70
2023-03-28T09:11:45.323Z,1.60
2023-03-28T09:12:45.319Z,1.50
2023-03-28T09:13:45.285Z,1.90
2023-03-28T09:14:45.275Z,1.80
2023-03-28T09:15:45.284Z,1.50
2023-03-28T09:16:45.363Z,1.50
2023-03-28T09:17:45.300Z,1.50
2023-03-28T09:18:45.268Z,1.60
2023-03-28T09:19:48.486Z,1.40
2023-03-28T09:20:45.206Z,1.40
2023-03-28T09:21:45.219Z,1.40
2023-03-28T09:22:45.193Z,1.60
2023-03-28T09:23:45.178Z,1.50
2023-03-28T09:24:45.166Z,1.40
2023-03-28T09:25:45.167Z,1.50
2023-03-28T09:26:45.194Z,1.70
2023-03-28T09:27:45.153Z,1.50
2023-03-28T09:28:45.133Z,1.40
2023-03-28T09:29:45.140Z,1.50
2023-03-28T09:30:45.128Z,1.50
2023-03-28T09:31:45.181Z,1.60
2023-03-28T09:32:45.114Z,1.80
2023-03-28T09:33:45.071Z,1.60
2023-03-28T09:34:45.086Z,1.50
2023-03-28T09:35:45.115Z,1.50
2023-03-28T09:36:49.095Z,1.50
2023-03-28T09:37:45.081Z,1.70
2023-03-28T09:38:45.013Z,1.40
2023-03-28T09:39:45.065Z,1.70
2023-03-28T09:40:45.009Z,1.70
2023-03-28T09:41:45.059Z,1.70
2023-03-28T09:42:45.570Z,1.50
2023-03-28T09:43:45.014Z,1.50
2023-03-28T09:44:54.172Z,1.40
2023-03-28T09:45:44.993Z,1.50
2023-03-28T09:46:44.938Z,1.50
2023-03-28T09:47:45.025Z,1.70
2023-03-28T09:48:45.011Z,1.60
2023-03-28T09:49:44.908Z,1.40
2023-03-28T09:50:44.881Z,1.50
2023-03-28T09:51:44.964Z,1.50
2023-03-28T09:52:44.870Z,1.50
2023-03-28T09:53:44.865Z,1.40
2023-03-28T09:54:44.846Z,1.60
2023-03-28T09:55:51.575Z,1.50
2023-03-28T09:56:44.862Z,1.40
2023-03-28T09:57:44.824Z,1.50
2023-03-28T09:58:44.804Z,1.60
2023-03-28T09:59:44.799Z,1.50
2023-03-28T10:00:44.842Z,1.40
2023-03-28T10:01:44.900Z,1.40
2023-03-28T10:02:44.861Z,1.40
2023-03-28T10:03:44.772Z,1.40
2023-03-28T10:04:44.865Z,1.40
2023-03-28T10:05:44.753Z,1.40
2023-03-28T10:06:44.709Z,1.40
2023-03-28T10:07:45.597Z,1.40
2023-03-28T10:08:44.717Z,1.70
2023-03-28T10:09:44.701Z,1.40
2023-03-28T10:10:44.668Z,1.50
2023-03-28T10:11:44.666Z,1.50
2023-03-28T10:12:44.659Z,1.40
2023-03-28T10:13:44.666Z,1.60
2023-03-28T10:14:44.631Z,1.40
2023-03-28T10:15:44.692Z,1.50
2023-03-28T10:16:44.608Z,1.50
2023-03-28T10:17:44.658Z,1.40
2023-03-28T10:18:44.589Z,1.50
2023-03-28T10:19:44.582Z,1.50
2023-03-28T10:20:44.622Z,1.70
2023-03-28T10:21:44.610Z,1.60
2023-03-28T10:22:44.608Z,1.40
2023-03-28T10:23:44.593Z,1.60
2023-03-28T10:24:44.582Z,1.50
2023-03-28T10:25:44.583Z,1.40
2023-03-28T10:26:44.555Z,1.60
2023-03-28T10:27:44.556Z,1.30
2023-03-28T10:28:44.535Z,1.30
2023-03-28T10:29:44.538Z,1.30
2023-03-28T10:30:44.608Z,1.40
2023-03-28T10:31:44.586Z,1.40
2023-03-28T10:32:44.530Z,1.50
2023-03-28T10:33:44.485Z,1.50
2023-03-28T10:34:44.437Z,1.60
2023-03-28T10:35:44.447Z,1.70
2023-03-28T10:36:44.400Z,1.40
2023-03-28T10:37:44.384Z,1.70
2023-03-28T10:38:44.388Z,1.40
2023-03-28T10:39:44.367Z,1.50
2023-03-28T10:40:44.388Z,1.40
2023-03-28T10:41:44.348Z,1.50
2023-03-28T10:42:44.327Z,1.60
2023-03-28T10:43:44.324Z,1.50
2023-03-28T10:44:44.324Z,1.60
2023-03-28T10:45:44.314Z,1.40
2023-03-28T10:46:44.413Z,1.70
2023-03-28T10:47:44.352Z,1.50
2023-03-28T10:48:44.264Z,1.60
2023-03-28T10:49:44.261Z,1.50
2023-03-28T10:50:44.252Z,1.50
2023-03-28T10:51:44.304Z,1.50
2023-03-28T10:52:44.234Z,1.40
2023-03-28T10:53:44.251Z,1.50
2023-03-28T10:54:44.208Z,1.40
2023-03-28T10:55:44.193Z,1.40
2023-03-28T10:56:44.209Z,1.60
2023-03-28T10:57:44.184Z,1.60
2023-03-28T10:58:44.177Z,1.30
2023-03-28T10:59:44.156Z,1.40
2023-03-28T11:00:44.147Z,1.40
2023-03-28T11:01:44.205Z,1.40
2023-03-28T11:02:44.208Z,1.30
2023-03-28T11:03:44.234Z,1.60
2023-03-28T11:04:44.197Z,1.50
2023-03-28T11:05:45.276Z,1.60
2023-03-28T11:06:44.086Z,1.40
2023-03-28T11:07:44.112Z,1.60
2023-03-28T11:08:44.061Z,1.30
2023-03-28T11:09:44.046Z,1.40
2023-03-28T11:10:44.026Z,1.50
2023-03-28T11:11:44.020Z,1.40
2023-03-28T11:12:54.301Z,1.40
2023-03-28T11:13:44.036Z,1.40
2023-03-28T11:14:43.984Z,1.40
2023-03-28T11:15:44.011Z,1.60
2023-03-28T11:16:43.963Z,1.60
2023-03-28T11:17:44.015Z,1.50
2023-03-28T11:18:43.942Z,1.50
2023-03-28T11:19:43.939Z,1.50
2023-03-28T11:20:43.933Z,1.30
2023-03-28T11:21:43.931Z,1.40
2023-03-28T11:22:52.324Z,1.50
2023-03-28T11:23:43.914Z,1.30
2023-03-28T11:24:43.886Z,1.40
2023-03-28T11:25:43.888Z,1.50
2023-03-28T11:26:43.905Z,1.50
2023-03-28T11:27:43.861Z,1.40
2023-03-28T11:28:46.421Z,1.40
2023-03-28T11:29:44.414Z,1.30
2023-03-28T11:30:43.817Z,1.50
2023-03-28T11:31:43.953Z,1.70
2023-03-28T11:32:43.836Z,1.40
2023-03-28T11:33:43.785Z,1.30
2023-03-28T11:34:43.778Z,1.50
2023-03-28T11:35:44.546Z,1.50
2023-03-28T11:36:43.753Z,1.30
2023-03-28T11:37:43.755Z,1.40
2023-03-28T11:38:43.724Z,1.50
2023-03-28T11:39:43.718Z,1.40
2023-03-28T11:40:43.707Z,1.30
2023-03-28T11:41:43.712Z,1.40
2023-03-28T11:42:43.686Z,1.30
2023-03-28T11:43:43.681Z,1.30
2023-03-28T11:44:43.660Z,1.40
2023-03-28T11:45:51.278Z,1.30
2023-03-28T11:46:43.675Z,1.30
2023-03-28T11:47:43.710Z,1.30
2023-03-28T11:48:43.618Z,1.60
2023-03-28T11:49:43.622Z,1.70
2023-03-28T11:50:43.598Z,1.50
2023-03-28T11:51:43.717Z,1.60
2023-03-28T11:52:43.579Z,1.60
2023-03-28T11:53:43.592Z,1.70
2023-03-28T11:54:43.561Z,1.40
2023-03-28T11:55:43.559Z,1.50
2023-03-28T11:56:43.604Z,1.70
2023-03-28T11:57:43.535Z,1.70
2023-03-28T11:58:43.525Z,1.70
2023-03-28T11:59:43.507Z,1.80
2023-03-28T12:00:43.553Z,1.50
2023-03-28T12:01:43.482Z,1.60
2023-03-28T12:02:43.534Z,1.50
2023-03-28T12:03:43.519Z,1.40
2023-03-28T12:04:43.461Z,1.80
2023-03-28T12:05:43.444Z,1.70
2023-03-28T12:06:52.196Z,1.60
2023-03-28T12:07:43.436Z,1.30
2023-03-28T12:08:43.413Z,1.60
2023-03-28T12:09:43.403Z,1.50
2023-03-28T12:10:43.412Z,1.40
2023-03-28T12:11:43.371Z,1.40
2023-03-28T12:12:43.368Z,1.50
2023-03-28T12:13:46.272Z,1.40
2023-03-28T12:14:43.355Z,1.40
2023-03-28T12:15:43.340Z,1.40
2023-03-28T12:16:43.407Z,1.30
2023-03-28T12:17:43.449Z,1.40
2023-03-28T12:18:43.300Z,1.50
2023-03-28T12:19:43.288Z,1.40
2023-03-28T12:20:43.293Z,1.40
2023-03-28T12:21:43.289Z,1.30
2023-03-28T12:22:43.281Z,1.40
2023-03-28T12:23:43.247Z,1.30
2023-03-28T12:24:43.233Z,1.40
2023-03-28T12:25:43.233Z,1.40
2023-03-28T12:26:43.228Z,1.40
2023-03-28T12:27:43.219Z,1.30
2023-03-28T12:28:43.194Z,1.40
2023-03-28T12:29:43.187Z,1.40
2023-03-28T12:30:43.278Z,1.20
2023-03-28T12:31:43.227Z,1.40
2023-03-28T12:32:43.188Z,1.40
2023-03-28T12:33:43.142Z,1.20
2023-03-28T12:34:43.162Z,1.30
2023-03-28T12:35:43.147Z,1.20
2023-03-28T12:36:43.110Z,1.30
2023-03-28T12:37:43.116Z,1.30
2023-03-28T12:38:43.089Z,1.20
2023-03-28T12:39:43.080Z,1.50
2023-03-28T12:40:44.021Z,1.20
2023-03-28T12:41:43.050Z,1.30
2023-03-28T12:42:43.061Z,1.30
2023-03-28T12:43:43.031Z,1.40
2023-03-28T12:44:43.023Z,1.30
2023-03-28T12:45:43.060Z,1.30
2023-03-28T12:46:43.003Z,1.30
2023-03-28T12:47:43.048Z,1.30
2023-03-28T12:48:42.990Z,1.40
2023-03-28T12:49:42.969Z,1.20
2023-03-28T12:50:42.982Z,1.50
2023-03-28T12:51:42.963Z,1.40
2023-03-28T12:52:42.953Z,1.30
2023-03-28T12:53:42.929Z,1.30
2023-03-28T12:54:42.920Z,1.40
2023-03-28T12:55:42.915Z,1.20
2023-03-28T12:56:42.954Z,1.40
2023-03-28T12:57:42.968Z,1.20
2023-03-28T12:58:42.881Z,1.00
2023-03-28T12:59:42.858Z,1.50
2023-03-28T13:00:42.865Z,1.30
2023-03-28T13:01:42.871Z,1.40
2023-03-28T13:02:42.878Z,1.20
2023-03-28T13:03:42.842Z,1.40
2023-03-28T13:04:42.868Z,1.20
2023-03-28T13:05:42.804Z,1.10
2023-03-28T13:06:42.794Z,1.30
2023-03-28T13:07:42.780Z,1.20
2023-03-28T13:08:42.794Z,1.20
2023-03-28T13:09:42.774Z,1.30
2023-03-28T13:10:42.765Z,1.30
2023-03-28T13:11:42.759Z,1.20
2023-03-28T13:12:42.744Z,1.30
2023-03-28T13:13:42.729Z,1.40
2023-03-28T13:14:42.722Z,1.40
2023-03-28T13:15:42.712Z,1.20
2023-03-28T13:16:42.691Z,1.30
2023-03-28T13:17:42.708Z,1.30
2023-03-28T13:18:42.736Z,1.30
2023-03-28T13:19:42.681Z,1.40